Time;durP1;ratioP1;P1;durP2;ratioP2;P2;SDS_P1;SDS_P2;PMS_P1;PMS_P2;Temp;Humidity;BMP_temperature;BMP_pressure;BME280_temperature;BME280_humidity;BME280_pressure;Samples;Min_cycle;Max_cycle;Signal;HPM_P1;HPM_P2
2024/04/19 00:01:10;;;;;;;6.95;2.90;;;8.90;35.10;;;;;;5524742;26;20421;-71
2024/04/19 00:03:35;;;;;;;7.80;3.00;;;8.80;35.90;;;;;;5523957;26;20654;-71
2024/04/19 00:06:01;;;;;;;7.40;3.00;;;9.00;35.10;;;;;;5523789;26;20704;-71
2024/04/19 00:08:26;;;;;;;7.10;3.40;;;8.90;35.50;;;;;;5523681;26;20319;-72
2024/04/19 00:10:55;;;;;;;5.83;3.30;;;8.90;35.20;;;;;;5523859;26;20424;-72
2024/04/19 00:13:22;;;;;;;7.90;3.40;;;9.00;35.20;;;;;;5524391;26;20316;-72
2024/04/19 00:15:47;;;;;;;6.88;3.20;;;9.10;34.80;;;;;;5523419;26;20391;-71
2024/04/19 00:18:13;;;;;;;7.15;2.97;;;8.70;35.00;;;;;;5523975;26;20324;-72
2024/04/19 00:20:39;;;;;;;4.80;2.80;;;9.00;36.20;;;;;;5523486;26;20760;-72
2024/04/19 00:23:04;;;;;;;5.10;2.50;;;9.00;34.90;;;;;;5523730;26;20721;-71
2024/04/19 00:25:33;;;;;;;6.37;2.83;;;9.10;34.80;;;;;;5523256;26;20845;-71
2024/04/19 00:27:59;;;;;;;9.13;2.90;;;9.20;36.90;;;;;;5523809;26;20569;-71
2024/04/19 00:30:24;;;;;;;7.20;3.07;;;9.20;35.50;;;;;;5523869;26;20331;-70
2024/04/19 00:32:50;;;;;;;8.20;2.70;;;9.20;36.00;;;;;;5523828;26;20354;-70
2024/04/19 00:35:15;;;;;;;7.90;2.87;;;9.10;36.80;;;;;;5524276;26;20324;-71
2024/04/19 00:37:41;;;;;;;11.10;3.20;;;9.20;36.70;;;;;;5523595;26;20698;-72
2024/04/19 00:40:07;;;;;;;8.77;3.73;;;9.20;37.10;;;;;;5523466;26;20331;-71
2024/04/19 00:42:33;;;;;;;8.77;3.55;;;9.20;38.20;;;;;;5523118;26;20363;-71
2024/04/19 00:44:58;;;;;;;13.03;3.50;;;9.10;37.30;;;;;;5522980;26;20324;-70
2024/04/19 00:47:24;;;;;;;7.63;3.23;;;9.10;37.90;;;;;;5523167;26;20327;-70
2024/04/19 00:49:49;;;;;;;5.20;3.00;;;9.10;38.10;;;;;;5523273;26;20320;-71
2024/04/19 00:52:15;;;;;;;6.17;3.00;;;9.10;37.60;;;;;;5522165;26;20327;-72
2024/04/19 00:54:41;;;;;;;8.17;3.60;;;9.10;38.30;;;;;;5522539;26;20323;-70
2024/04/19 00:57:08;;;;;;;6.45;3.20;;;9.10;38.40;;;;;;5523168;26;20348;-71
2024/04/19 00:59:34;;;;;;;5.63;3.00;;;9.10;41.00;;;;;;5523397;26;20311;-71
2024/04/19 01:01:59;;;;;;;10.07;4.00;;;9.10;39.90;;;;;;5523747;26;20428;-72
2024/04/19 01:04:25;;;;;;;9.75;3.60;;;9.10;39.40;;;;;;5522656;26;20934;-70
2024/04/19 01:06:50;;;;;;;7.93;3.20;;;8.90;41.30;;;;;;5523100;26;20718;-71
2024/04/19 01:09:16;;;;;;;8.55;3.10;;;9.00;38.70;;;;;;5524306;26;20307;-72
2024/04/19 01:11:41;;;;;;;5.38;3.10;;;9.10;39.20;;;;;;5524367;26;20356;-72
2024/04/19 01:14:10;;;;;;;11.15;3.70;;;8.90;40.00;;;;;;5523364;26;20312;-72
2024/04/19 01:16:36;;;;;;;7.53;3.63;;;9.00;41.30;;;;;;5524155;26;20409;-72
2024/04/19 01:19:07;;;;;;;6.67;3.00;;;8.90;42.70;;;;;;5523734;26;20316;-72
2024/04/19 01:21:33;;;;;;;13.60;4.05;;;8.90;43.40;;;;;;5523253;26;20838;-71
2024/04/19 01:24:38;;;;;;;7.15;3.40;;;8.90;43.80;;;;;;5522706;26;20363;-71
2024/04/19 01:27:08;;;;;;;11.52;3.72;;;8.90;43.10;;;;;;5522691;26;20359;-71
2024/04/19 01:29:35;;;;;;;9.18;4.60;;;8.90;44.40;;;;;;5522520;26;20323;-70
2024/04/19 01:32:03;;;;;;;9.75;3.85;;;8.80;46.00;;;;;;5490672;26;20328;-70
2024/04/19 01:34:29;;;;;;;11.63;3.60;;;8.90;44.80;;;;;;5522425;26;20409;-70
2024/04/19 01:36:54;;;;;;;6.05;3.33;;;8.90;47.60;;;;;;5489961;26;20339;-70
2024/04/19 01:39:20;;;;;;;8.43;4.43;;;8.90;46.20;;;;;;5522613;26;20632;-72
2024/04/19 01:41:46;;;;;;;7.32;4.07;;;8.90;47.20;;;;;;5522540;26;20434;-71
2024/04/19 01:44:12;;;;;;;7.07;3.75;;;8.80;47.70;;;;;;5522481;26;20717;-71
2024/04/19 01:46:38;;;;;;;11.07;3.90;;;8.80;46.80;;;;;;5522487;26;20390;-71
2024/04/19 01:49:04;;;;;;;10.55;3.88;;;8.70;45.80;;;;;;5523000;26;20358;-71
2024/04/19 01:51:29;;;;;;;8.52;4.10;;;8.70;46.20;;;;;;5522487;26;20359;-70
2024/04/19 01:53:55;;;;;;;10.70;3.90;;;8.60;46.00;;;;;;5526181;26;20734;-71
2024/04/19 01:56:21;;;;;;;7.00;3.95;;;8.50;48.20;;;;;;5535309;26;20348;-71
2024/04/19 01:58:46;;;;;;;8.30;3.90;;;8.40;49.30;;;;;;5535254;26;20335;-72
2024/04/19 02:01:12;;;;;;;7.30;4.10;;;8.30;51.70;;;;;;5538609;26;20328;-69
2024/04/19 02:03:40;;;;;;;12.02;4.60;;;8.30;54.00;;;;;;5526870;26;20367;-72
2024/04/19 02:06:08;;;;;;;7.35;4.40;;;8.30;55.70;;;;;;5523299;26;20702;-71
2024/04/19 02:08:33;;;;;;;6.60;4.20;;;8.30;54.10;;;;;;5523864;26;20331;-70
2024/04/19 02:11:06;;;;;;;8.47;4.13;;;8.20;56.10;;;;;;5522622;26;20715;-72
2024/04/19 02:13:32;;;;;;;7.40;4.38;;;8.20;56.50;;;;;;5523590;26;20470;-71
2024/04/19 02:15:58;;;;;;;8.98;4.90;;;8.00;58.80;;;;;;5489342;26;20359;-71
2024/04/19 02:18:24;;;;;;;8.32;5.00;;;8.00;62.10;;;;;;5490172;26;20383;-71
2024/04/19 02:20:50;;;;;;;11.30;5.50;;;8.10;60.00;;;;;;5522003;26;20653;-72
2024/04/19 02:23:35;;;;;;;7.80;5.00;;;8.10;62.50;;;;;;5489514;26;20363;-72
2024/04/19 02:26:01;;;;;;;11.43;5.10;;;8.00;64.10;;;;;;5523628;26;20814;-72
2024/04/19 02:31:11;;;;;;;11.63;6.60;;;8.00;69.60;;;;;;5521938;26;20878;-71
2024/04/19 02:33:37;;;;;;;11.67;6.07;;;8.00;71.30;;;;;;5522112;26;20327;-71
2024/04/19 02:36:03;;;;;;;10.73;7.23;;;8.00;72.70;;;;;;5521878;26;20368;-72
2024/04/19 02:38:29;;;;;;;11.50;6.75;;;8.00;73.90;;;;;;5524330;26;20327;-69
2024/04/19 02:40:54;;;;;;;8.68;6.75;;;8.00;72.00;;;;;;5524257;26;20360;-71
2024/04/19 02:43:20;;;;;;;11.07;7.00;;;8.00;72.30;;;;;;5522724;26;20320;-71
2024/04/19 02:45:46;;;;;;;16.87;6.80;;;8.00;74.10;;;;;;5521148;26;20339;-71
2024/04/19 02:48:12;;;;;;;10.30;6.85;;;8.10;70.80;;;;;;5521337;26;20332;-72
2024/04/19 02:50:37;;;;;;;10.57;6.80;;;8.10;71.10;;;;;;5521070;26;20391;-71
2024/04/19 02:53:03;;;;;;;13.50;7.33;;;8.00;73.10;;;;;;5521536;26;20659;-71
2024/04/19 02:55:29;;;;;;;11.40;6.87;;;7.90;73.80;;;;;;5520668;26;20316;-69
2024/04/19 02:57:54;;;;;;;10.47;7.00;;;8.00;71.30;;;;;;5521247;26;20376;-70
2024/04/19 03:00:20;;;;;;;11.47;7.10;;;8.00;74.00;;;;;;5521172;26;20339;-71
2024/04/19 03:02:45;;;;;;;12.80;7.37;;;8.10;69.70;;;;;;5521264;26;20324;-72
2024/04/19 03:05:11;;;;;;;9.90;7.00;;;7.80;71.60;;;;;;5488357;26;20331;-71
2024/04/19 03:07:37;;;;;;;14.20;6.37;;;7.50;72.10;;;;;;5521134;26;20356;-70
2024/04/19 03:10:02;;;;;;;11.20;6.60;;;8.10;69.00;;;;;;5520766;26;20660;-69
2024/04/19 03:12:28;;;;;;;9.43;6.90;;;8.10;68.80;;;;;;5521045;26;20858;-72
2024/04/19 03:14:53;;;;;;;11.40;6.80;;;8.30;70.90;;;;;;5521198;26;20367;-70
2024/04/19 03:17:19;;;;;;;10.47;6.43;;;8.10;70.10;;;;;;5524626;26;20329;-70
2024/04/19 03:19:44;;;;;;;9.03;6.50;;;8.20;69.20;;;;;;5524277;26;20348;-72
2024/04/19 03:22:10;;;;;;;10.53;6.50;;;8.10;72.20;;;;;;5524362;26;20432;-70
2024/04/19 03:24:36;;;;;;;10.15;6.00;;;8.10;69.80;;;;;;5524687;26;20320;-72
2024/04/19 03:27:02;;;;;;;8.90;6.15;;;8.30;70.70;;;;;;5524751;26;20324;-70
2024/04/19 03:29:28;;;;;;;10.82;6.60;;;7.80;75.60;;;;;;5524820;26;20328;-70
2024/04/19 03:31:53;;;;;;;11.50;6.38;;;8.10;70.80;;;;;;5524608;26;20372;-70
2024/04/19 03:34:19;;;;;;;10.77;6.55;;;8.20;70.00;;;;;;5524055;26;20360;-69
2024/04/19 03:36:47;;;;;;;15.13;7.10;;;8.20;70.30;;;;;;5523966;26;20857;-70
2024/04/19 03:39:12;;;;;;;10.57;6.13;;;8.20;72.70;;;;;;5524635;26;20379;-71
2024/04/19 03:41:40;;;;;;;13.87;6.63;;;8.10;71.70;;;;;;5524021;26;20400;-70
2024/04/19 03:46:50;;;;;;;10.35;6.20;;;8.00;74.00;;;;;;5522913;26;20460;-71
2024/04/19 03:49:16;;;;;;;7.60;5.75;;;8.00;76.00;;;;;;5522191;26;20335;-69
2024/04/19 03:51:41;;;;;;;9.50;6.10;;;8.00;80.30;;;;;;5523343;25;20505;-71
2024/04/19 03:54:07;;;;;;;12.60;6.03;;;7.90;79.30;;;;;;5523094;26;20408;-76
2024/04/19 03:56:32;;;;;;;7.40;6.00;;;8.00;78.50;;;;;;5525025;26;20316;-70
2024/04/19 03:58:58;;;;;;;10.80;6.10;;;7.80;81.60;;;;;;5524034;26;20338;-70
2024/04/19 04:01:23;;;;;;;8.50;5.60;;;7.90;78.00;;;;;;5525091;26;20320;-71
2024/04/19 04:03:53;;;;;;;7.60;5.10;;;7.90;79.60;;;;;;5526847;26;20346;-70
2024/04/19 04:06:19;;;;;;;10.93;6.00;;;7.80;85.50;;;;;;5535059;26;20331;-72
2024/04/19 04:08:47;;;;;;;11.48;5.55;;;7.50;82.30;;;;;;5530371;26;20424;-72
2024/04/19 04:11:13;;;;;;;7.25;5.20;;;7.90;77.10;;;;;;5525028;26;20453;-71
2024/04/19 04:13:40;;;;;;;7.80;5.27;;;7.90;78.40;;;;;;5523326;26;20762;-71
2024/04/19 04:16:06;;;;;;;13.10;6.07;;;7.90;79.80;;;;;;5524309;26;20312;-72
2024/04/19 04:18:32;;;;;;;8.63;5.80;;;7.80;81.30;;;;;;5524422;26;20356;-71
2024/04/19 04:20:58;;;;;;;12.75;6.43;;;7.80;81.10;;;;;;5523207;26;20367;-72
2024/04/19 04:23:23;;;;;;;14.05;6.70;;;7.90;82.20;;;;;;5522068;26;20316;-72
2024/04/19 04:25:49;;;;;;;7.68;5.60;;;7.80;82.60;;;;;;5522463;26;20353;-71
2024/04/19 04:28:15;;;;;;;12.80;6.82;;;7.80;82.60;;;;;;5523149;26;20323;-71
2024/04/19 04:30:40;;;;;;;9.73;5.63;;;8.10;84.10;;;;;;5523761;26;20331;-72
2024/04/19 04:33:06;;;;;;;9.52;5.30;;;7.90;80.90;;;;;;5523895;26;20348;-72
2024/04/19 04:35:32;;;;;;;12.53;5.50;;;7.70;78.50;;;;;;5490929;26;20324;-71
2024/04/19 04:37:57;;;;;;;7.07;4.63;;;7.80;82.20;;;;;;5524298;26;20332;-72
2024/04/19 04:40:23;;;;;;;8.00;4.50;;;7.70;80.30;;;;;;5523894;26;20324;-71
2024/04/19 04:42:50;;;;;;;9.65;4.63;;;7.80;80.80;;;;;;5522551;26;20368;-71
2024/04/19 04:45:16;;;;;;;6.17;3.97;;;7.80;78.80;;;;;;5523129;26;20316;-72
2024/04/19 04:47:42;;;;;;;9.47;4.37;;;7.70;80.50;;;;;;5523899;26;20352;-71
2024/04/19 04:50:07;;;;;;;8.70;4.10;;;7.80;79.60;;;;;;5523488;26;20340;-72
2024/04/19 04:52:33;;;;;;;7.80;3.53;;;7.80;79.60;;;;;;5524046;26;20329;-72
2024/04/19 04:54:58;;;;;;;8.73;4.77;;;7.80;78.60;;;;;;5522755;26;20331;-72
2024/04/19 04:57:24;;;;;;;7.20;3.90;;;7.70;82.00;;;;;;5523185;26;20328;-72
2024/04/19 04:59:50;;;;;;;6.57;3.80;;;7.70;79.80;;;;;;5523384;26;20350;-70
2024/04/19 05:02:15;;;;;;;7.77;3.40;;;7.80;81.10;;;;;;5523229;26;20332;-71
2024/04/19 05:04:42;;;;;;;6.07;3.73;;;7.80;79.80;;;;;;5522985;26;20315;-71
2024/04/19 05:07:08;;;;;;;4.80;3.50;;;7.80;80.40;;;;;;5526844;26;20889;-71
2024/04/19 05:09:33;;;;;;;8.55;3.50;;;7.80;78.00;;;;;;5526840;26;20355;-69
2024/04/19 05:11:59;;;;;;;6.25;4.10;;;7.80;77.60;;;;;;5524024;26;20771;-72
2024/04/19 05:14:24;;;;;;;5.00;3.30;;;8.30;77.80;;;;;;5490639;26;20341;-71
2024/04/19 05:16:50;;;;;;;6.20;3.30;;;7.80;76.50;;;;;;5522563;26;20403;-70
2024/04/19 05:19:15;;;;;;;6.00;3.47;;;7.80;75.90;;;;;;5523137;26;20371;-71
2024/04/19 05:21:41;;;;;;;4.63;3.30;;;7.80;77.10;;;;;;5522818;26;20311;-72
2024/04/19 05:24:06;;;;;;;5.63;3.80;;;7.80;76.90;;;;;;5522856;26;20429;-70
2024/04/19 05:26:32;;;;;;;5.40;3.80;;;7.90;76.30;;;;;;5522907;26;20323;-72
2024/04/19 05:28:57;;;;;;;8.33;3.90;;;7.70;78.10;;;;;;5523102;26;20324;-71
2024/04/19 05:31:24;;;;;;;6.43;3.30;;;7.90;79.10;;;;;;5522588;26;20387;-70
2024/04/19 05:33:53;;;;;;;5.75;3.50;;;7.70;80.70;;;;;;5522310;26;20900;-70
2024/04/19 05:36:18;;;;;;;4.80;3.25;;;7.80;81.40;;;;;;5522042;26;20354;-71
2024/04/19 05:38:44;;;;;;;3.77;3.30;;;7.80;83.70;;;;;;5523279;26;20315;-70
2024/04/19 05:41:10;;;;;;;4.35;3.00;;;7.80;80.10;;;;;;5523557;26;20351;-72
2024/04/19 05:43:36;;;;;;;3.88;3.30;;;7.80;81.10;;;;;;5523223;26;20678;-71
2024/04/19 05:46:02;;;;;;;7.13;3.77;;;7.80;83.30;;;;;;5522520;26;20324;-72
2024/04/19 05:48:28;;;;;;;6.50;3.47;;;7.80;89.70;;;;;;5523052;26;20347;-72
2024/04/19 05:50:53;;;;;;;5.85;3.78;;;7.80;85.20;;;;;;5522852;26;20328;-70
2024/04/19 05:53:19;;;;;;;4.97;3.35;;;7.80;86.30;;;;;;5522600;26;20320;-72
2024/04/19 05:55:44;;;;;;;4.40;3.50;;;7.90;89.50;;;;;;5522007;26;20707;-71
2024/04/19 05:58:10;;;;;;;5.32;3.85;;;7.80;87.20;;;;;;5521383;26;20323;-71
2024/04/19 06:00:36;;;;;;;4.13;3.72;;;7.90;87.80;;;;;;5521989;26;20328;-71
2024/04/19 06:03:01;;;;;;;8.80;4.00;;;8.10;91.50;;;;;;5521729;26;20327;-71
2024/04/19 06:05:27;;;;;;;6.35;4.00;;;7.90;88.40;;;;;;5521752;26;20663;-71
2024/04/19 06:07:53;;;;;;;6.87;3.60;;;7.90;88.50;;;;;;5521661;26;20762;-70
2024/04/19 06:10:19;;;;;;;5.18;3.97;;;8.00;87.90;;;;;;5521663;26;20328;-71
2024/04/19 06:12:45;;;;;;;5.80;3.83;;;7.90;89.70;;;;;;5522030;26;20371;-71
2024/04/19 06:15:10;;;;;;;5.90;3.70;;;8.00;88.40;;;;;;5521346;26;20375;-72
2024/04/19 06:17:36;;;;;;;6.60;4.13;;;8.10;87.90;;;;;;5521724;26;20996;-71
2024/04/19 06:20:01;;;;;;;7.13;3.97;;;8.10;87.80;;;;;;5521388;26;20312;-70
2024/04/19 06:22:27;;;;;;;5.95;3.80;;;8.00;88.60;;;;;;5521619;26;20343;-72
2024/04/19 06:24:52;;;;;;;6.22;3.60;;;8.20;89.40;;;;;;5521348;26;20352;-72
2024/04/19 06:27:18;;;;;;;4.70;3.60;;;8.10;88.50;;;;;;5521648;26;20319;-71
2024/04/19 06:29:43;;;;;;;3.50;3.20;;;8.20;87.80;;;;;;5522006;26;20320;-71
2024/04/19 06:32:09;;;;;;;5.88;4.35;;;8.30;87.10;;;;;;5521912;26;20817;-70
2024/04/19 06:34:35;;;;;;;5.70;4.00;;;8.30;89.50;;;;;;5521450;26;20328;-70
2024/04/19 06:37:02;;;;;;;4.23;3.80;;;8.30;92.90;;;;;;5521595;26;20332;-71
2024/04/19 06:39:28;;;;;;;5.03;3.60;;;8.50;88.20;;;;;;5522216;26;20822;-70
2024/04/19 06:41:54;;;;;;;3.63;3.33;;;8.40;89.00;;;;;;5522473;26;20346;-73
2024/04/19 06:44:20;;;;;;;6.68;4.10;;;8.50;87.20;;;;;;5521172;26;20418;-71
2024/04/19 06:46:46;;;;;;;6.85;4.05;;;8.40;87.90;;;;;;5522229;26;20335;-71
2024/04/19 06:49:11;;;;;;;3.90;3.50;;;8.50;86.70;;;;;;5521661;26;20543;-70
2024/04/19 06:51:37;;;;;;;5.50;4.10;;;8.40;89.40;;;;;;5525118;26;20328;-71
2024/04/19 06:54:03;;;;;;;4.82;3.90;;;8.50;90.00;;;;;;5524902;26;20356;-70
2024/04/19 06:56:29;;;;;;;4.72;3.92;;;8.60;87.00;;;;;;5525805;26;20323;-72
2024/04/19 06:58:54;;;;;;;4.20;3.80;;;8.60;88.10;;;;;;5524772;26;20351;-71
2024/04/19 07:01:21;;;;;;;5.33;3.90;;;8.70;88.90;;;;;;5524884;26;20760;-70
2024/04/19 07:03:47;;;;;;;5.55;3.70;;;8.70;87.90;;;;;;5524598;26;20356;-71
2024/04/19 07:06:14;;;;;;;4.85;3.47;;;8.70;89.00;;;;;;5524955;26;20806;-71
2024/04/19 07:08:40;;;;;;;7.55;4.70;;;8.60;89.70;;;;;;5525373;26;20319;-70
2024/04/19 07:11:06;;;;;;;5.18;4.68;;;8.60;92.40;;;;;;5525125;26;20331;-71
2024/04/19 07:13:33;;;;;;;7.30;4.43;;;9.40;94.70;;;;;;5524666;26;20327;-71
2024/04/19 07:15:58;;;;;;;5.55;4.95;;;8.60;94.00;;;;;;5524097;26;20484;-72
2024/04/19 07:18:24;;;;;;;4.80;4.13;;;8.70;95.30;;;;;;5524808;26;20323;-70
2024/04/19 07:20:51;;;;;;;4.72;4.15;;;8.70;93.00;;;;;;5524547;26;20421;-70
2024/04/19 07:23:21;;;;;;;7.13;4.90;;;8.60;93.90;;;;;;5524801;26;20371;-71
2024/04/19 07:25:47;;;;;;;7.00;4.80;;;8.70;95.20;;;;;;5524672;26;20737;-71
2024/04/19 07:28:13;;;;;;;8.80;5.10;;;8.80;92.00;;;;;;5525105;26;20434;-71
2024/04/19 07:30:39;;;;;;;5.82;4.93;;;8.80;92.30;;;;;;5524706;26;20335;-70
2024/04/19 07:33:04;;;;;;;10.60;5.30;;;8.80;93.10;;;;;;5524662;26;20320;-71
2024/04/19 07:35:30;;;;;;;5.53;4.90;;;8.70;94.90;;;;;;5525386;26;20346;-70
2024/04/19 07:37:56;;;;;;;7.45;5.40;;;8.80;93.30;;;;;;5526134;26;20829;-71
2024/04/19 07:40:23;;;;;;;6.85;4.80;;;8.90;93.30;;;;;;5525151;26;20359;-71
2024/04/19 07:42:49;;;;;;;6.00;5.40;;;8.90;93.80;;;;;;5524517;26;20324;-70
2024/04/19 07:45:18;;;;;;;6.30;4.70;;;8.90;93.10;;;;;;5524445;26;20687;-69
2024/04/19 07:47:44;;;;;;;5.50;4.90;;;9.20;93.60;;;;;;5524003;26;20355;-71
2024/04/19 07:50:10;;;;;;;5.95;4.88;;;9.00;89.40;;;;;;5524539;25;20335;-70
2024/04/19 07:52:36;;;;;;;5.15;4.60;;;9.30;90.50;;;;;;5524413;26;20319;-70
2024/04/19 07:55:01;;;;;;;7.20;5.07;;;9.40;89.40;;;;;;5523626;26;20323;-70
2024/04/19 07:57:27;;;;;;;4.95;4.45;;;9.50;89.20;;;;;;5523860;26;20320;-70
2024/04/19 07:59:53;;;;;;;5.00;4.10;;;9.70;87.40;;;;;;5523948;26;20323;-70
2024/04/19 08:02:20;;;;;;;9.50;4.50;;;9.90;86.40;;;;;;5525662;26;20377;-70
2024/04/19 08:04:46;;;;;;;5.47;4.50;;;10.80;85.10;;;;;;5528906;26;20312;-71
2024/04/19 08:07:11;;;;;;;7.33;5.00;;;9.90;87.10;;;;;;5532060;26;20390;-69
2024/04/19 08:09:37;;;;;;;4.80;4.30;;;9.90;89.30;;;;;;5529001;26;20355;-70
2024/04/19 08:12:03;;;;;;;7.50;4.85;;;9.90;86.70;;;;;;5524458;26;20437;-70
2024/04/19 08:14:28;;;;;;;5.88;5.05;;;9.90;88.80;;;;;;5523950;26;20355;-70
2024/04/19 08:16:54;;;;;;;6.75;5.60;;;9.80;86.70;;;;;;5524064;26;20319;-71
2024/04/19 08:19:20;;;;;;;9.55;5.82;;;9.70;89.50;;;;;;5524082;26;20810;-71
2024/04/19 08:21:45;;;;;;;9.70;6.03;;;9.70;88.80;;;;;;5523624;26;20359;-71
2024/04/19 08:24:11;;;;;;;11.25;6.00;;;9.70;91.90;;;;;;5523654;26;20327;-71
2024/04/19 08:26:36;;;;;;;10.67;6.13;;;9.80;90.60;;;;;;5523806;26;20328;-71
2024/04/19 08:29:02;;;;;;;7.70;6.60;;;10.00;88.70;;;;;;5524452;26;20311;-70
2024/04/19 08:31:27;;;;;;;8.10;6.33;;;10.00;86.70;;;;;;5523325;26;20425;-71
2024/04/19 08:33:53;;;;;;;9.67;6.87;;;10.10;84.80;;;;;;5523239;26;20891;-72
2024/04/19 08:36:19;;;;;;;10.70;7.20;;;10.10;85.20;;;;;;5522888;26;20425;-71
2024/04/19 08:38:45;;;;;;;7.63;6.80;;;10.10;87.20;;;;;;5522819;26;20949;-70
2024/04/19 08:41:11;;;;;;;11.40;7.60;;;10.00;89.30;;;;;;5523503;26;20323;-70
2024/04/19 08:43:37;;;;;;;10.60;8.20;;;10.10;90.50;;;;;;5523385;26;20328;-70
2024/04/19 08:46:04;;;;;;;9.77;7.40;;;10.10;90.00;;;;;;5523136;26;20323;-71
2024/04/19 08:48:31;;;;;;;12.15;8.50;;;10.30;88.20;;;;;;5523032;26;20405;-70
2024/04/19 08:50:59;;;;;;;9.85;7.65;;;10.30;88.20;;;;;;5522812;25;20366;-71
2024/04/19 08:53:25;;;;;;;8.70;7.60;;;10.40;86.90;;;;;;5523067;26;20411;-71
2024/04/19 08:55:51;;;;;;;11.30;8.15;;;10.40;86.60;;;;;;5523044;26;20766;-71
2024/04/19 08:58:21;;;;;;;9.90;8.07;;;10.40;88.80;;;;;;5523245;26;20403;-70
2024/04/19 09:00:47;;;;;;;11.27;8.20;;;10.50;86.90;;;;;;5522848;26;20390;-71
2024/04/19 09:03:12;;;;;;;13.40;7.83;;;10.60;82.80;;;;;;5523125;26;20323;-69
2024/04/19 09:05:39;;;;;;;10.30;7.57;;;10.60;81.60;;;;;;5522363;26;20419;-70
2024/04/19 09:08:05;;;;;;;11.80;7.63;;;10.70;82.80;;;;;;5522858;26;20348;-71
2024/04/19 09:10:31;;;;;;;14.43;7.15;;;10.80;81.10;;;;;;5523049;26;20727;-71
2024/04/19 09:12:57;;;;;;;11.95;7.82;;;10.70;81.70;;;;;;5521953;26;20367;-71
2024/04/19 09:15:27;;;;;;;9.95;7.47;;;10.70;83.00;;;;;;5522687;26;20319;-71
2024/04/19 09:17:53;;;;;;;9.07;7.30;;;10.60;84.60;;;;;;5523235;26;20316;-70
2024/04/19 09:20:25;;;;;;;10.38;7.45;;;10.60;84.80;;;;;;5523915;26;20453;-70
2024/04/19 09:22:51;;;;;;;9.20;7.70;;;10.60;83.90;;;;;;5523218;26;20367;-71
2024/04/19 09:25:17;;;;;;;10.37;7.70;;;10.50;85.20;;;;;;5523000;26;20821;-70
2024/04/19 09:27:45;;;;;;;11.50;7.30;;;10.60;83.70;;;;;;5523085;26;20319;-70
2024/04/19 09:30:11;;;;;;;9.00;6.20;;;10.70;85.00;;;;;;5522789;26;20810;-71
2024/04/19 09:32:37;;;;;;;7.32;5.80;;;10.80;78.60;;;;;;5522652;26;20327;-71
2024/04/19 09:35:04;;;;;;;5.78;5.10;;;10.90;76.30;;;;;;5522115;26;20347;-71
2024/04/19 09:37:30;;;;;;;6.00;4.75;;;11.10;76.70;;;;;;5522368;26;20398;-71
2024/04/19 09:39:56;;;;;;;4.80;4.00;;;11.20;74.30;;;;;;5522248;26;20324;-71
2024/04/19 09:42:25;;;;;;;6.13;3.75;;;11.40;68.20;;;;;;5521945;26;20417;-72
2024/04/19 09:44:52;;;;;;;4.97;3.55;;;11.20;65.20;;;;;;5522554;26;20372;-71
2024/04/19 09:47:18;;;;;;;5.38;3.85;;;11.10;69.80;;;;;;5522102;26;20415;-71
2024/04/19 09:49:45;;;;;;;4.68;3.72;;;11.40;70.70;;;;;;5522155;26;20444;-70
2024/04/19 09:52:19;;;;;;;3.80;3.40;;;11.70;66.70;;;;;;5522313;25;20328;-71
2024/04/19 09:54:46;;;;;;;3.35;2.97;;;12.10;65.30;;;;;;5521635;26;20327;-70
2024/04/19 09:57:12;;;;;;;4.30;3.10;;;12.30;60.10;;;;;;5522691;26;20418;-72
2024/04/19 09:59:39;;;;;;;4.70;3.10;;;12.70;58.20;;;;;;5522473;26;20851;-71
2024/04/19 10:02:05;;;;;;;5.63;3.03;;;13.20;54.70;;;;;;5522280;26;20423;-70
2024/04/19 10:04:34;;;;;;;7.90;3.10;;;13.40;50.70;;;;;;5522046;26;20806;-72
2024/04/19 10:07:02;;;;;;;4.85;3.20;;;13.40;51.50;;;;;;5521908;26;20370;-72
2024/04/19 10:09:29;;;;;;;3.15;2.95;;;13.30;51.50;;;;;;5522787;26;20335;-70
2024/04/19 10:11:55;;;;;;;4.00;3.20;;;13.00;52.30;;;;;;5522498;26;20324;-71
2024/04/19 10:14:23;;;;;;;6.43;4.67;;;12.80;54.60;;;;;;5522315;26;20396;-74
2024/04/19 10:16:48;;;;;;;7.93;4.40;;;12.90;57.00;;;;;;5521729;26;20537;-72
2024/04/19 10:19:16;;;;;;;8.07;5.20;;;12.30;59.10;;;;;;5522231;26;20671;-71
2024/04/19 10:21:42;;;;;;;14.75;6.97;;;11.90;62.30;;;;;;5523129;26;20726;-71
2024/04/19 10:24:17;;;;;;;11.48;7.05;;;11.50;89.10;;;;;;5522732;26;20366;-72
2024/04/19 10:26:53;;;;;;;12.60;7.05;;;11.10;95.00;;;;;;5525938;26;20365;-70
2024/04/19 10:29:25;;;;;;;4.37;2.60;;;11.00;94.60;;;;;;5526655;26;20747;-71
2024/04/19 10:31:52;;;;;;;5.13;2.58;;;10.90;74.90;;;;;;5526117;26;20327;-71
2024/04/19 10:34:18;;;;;;;2.80;1.70;;;11.00;75.80;;;;;;5526338;26;20335;-70
2024/04/19 10:36:48;;;;;;;5.75;2.40;;;11.10;71.10;;;;;;5526078;26;20355;-70
2024/04/19 10:39:14;;;;;;;4.90;2.50;;;11.20;76.40;;;;;;5526388;26;20331;-71
2024/04/19 10:41:53;;;;;;;3.13;2.35;;;11.50;74.10;;;;;;5526343;26;20331;-70
2024/04/19 10:44:19;;;;;;;6.07;1.92;;;11.40;68.50;;;;;;5525632;26;20344;-71
2024/04/19 10:46:47;;;;;;;5.10;1.92;;;11.10;70.40;;;;;;5526800;26;20403;-71
2024/04/19 10:49:15;;;;;;;1.67;1.17;;;10.70;70.90;;;;;;5527400;26;20393;-70
2024/04/19 10:51:41;;;;;;;5.07;1.60;;;10.20;70.10;;;;;;5526475;26;20331;-72
2024/04/19 10:54:07;;;;;;;1.90;1.20;;;10.10;75.50;;;;;;5526685;26;20367;-71
2024/04/19 10:56:35;;;;;;;5.32;1.20;;;10.00;76.90;;;;;;5526904;26;20328;-71
2024/04/19 10:59:01;;;;;;;9.00;1.40;;;9.60;96.90;;;;;;5525548;26;20327;-70
2024/04/19 11:01:27;;;;;;;1.90;1.10;;;8.10;99.90;;;;;;5526079;26;20347;-70
2024/04/19 11:03:53;;;;;;;3.58;1.00;;;;;;;;;;5528026;26;20324;-70
2024/04/19 11:06:19;;;;;;;0.80;0.60;;;7.40;99.90;;;;;;5525113;26;20327;-71
2024/04/19 11:08:45;;;;;;;0.80;0.50;;;8.10;99.90;;;;;;5526001;26;20844;-69
2024/04/19 11:11:10;;;;;;;0.80;0.50;;;7.90;99.90;;;;;;5526548;26;20703;-70
2024/04/19 11:13:37;;;;;;;0.80;0.50;;;8.30;99.90;;;;;;5525795;26;20331;-70
2024/04/19 11:16:02;;;;;;;4.80;0.70;;;8.30;99.90;;;;;;5524888;26;20792;-70
2024/04/19 11:18:28;;;;;;;0.80;0.50;;;8.70;99.90;;;;;;5526700;26;20405;-70
2024/04/19 11:20:54;;;;;;;0.80;0.60;;;8.50;99.90;;;;;;5526359;26;20420;-71
2024/04/19 11:23:20;;;;;;;0.90;0.52;;;;;;;;;;5526391;26;20389;-70
2024/04/19 11:25:46;;;;;;;0.80;0.50;;;8.50;99.90;;;;;;5525308;26;20327;-70
2024/04/19 11:28:12;;;;;;;0.80;0.50;;;9.10;99.90;;;;;;5525346;26;20323;-70
2024/04/19 11:30:38;;;;;;;0.80;0.50;;;11.00;99.90;;;;;;5525242;26;20405;-70
2024/04/19 11:33:09;;;;;;;0.80;0.50;;;9.60;99.90;;;;;;5524651;26;20359;-70
2024/04/19 11:35:40;;;;;;;0.80;0.50;;;9.50;99.90;;;;;;5524515;26;20324;-70
2024/04/19 11:38:06;;;;;;;0.80;0.50;;;9.80;99.90;;;;;;5524708;26;20354;-71
2024/04/19 11:40:32;;;;;;;0.80;0.50;;;9.80;99.90;;;;;;5524799;26;20420;-70
2024/04/19 11:42:58;;;;;;;0.80;0.50;;;9.80;99.90;;;;;;5524722;26;20308;-71
2024/04/19 11:45:24;;;;;;;0.90;0.63;;;10.00;99.90;;;;;;5524230;26;20320;-71
2024/04/19 11:47:52;;;;;;;1.25;1.13;;;10.00;99.90;;;;;;5524066;26;20375;-71
2024/04/19 11:50:23;;;;;;;0.80;0.50;;;9.80;99.90;;;;;;5524204;26;20842;-71
2024/04/19 11:52:49;;;;;;;0.80;0.50;;;9.90;99.90;;;;;;5523845;26;20332;-70
2024/04/19 11:55:14;;;;;;;0.90;0.80;;;9.90;99.90;;;;;;5523428;26;20425;-69
2024/04/19 11:57:41;;;;;;;1.70;0.60;;;10.00;99.90;;;;;;5524040;26;20360;-71
2024/04/19 12:00:07;;;;;;;0.80;0.50;;;10.00;99.90;;;;;;5523713;26;20802;-71
2024/04/19 12:02:33;;;;;;;15.30;0.80;;;10.60;99.90;;;;;;5524084;26;20323;-71
2024/04/19 12:04:58;;;;;;;2.00;0.70;;;10.60;99.90;;;;;;5523704;26;20348;-70
2024/04/19 12:07:24;;;;;;;0.80;0.50;;;10.00;99.90;;;;;;5524032;26;20364;-69
2024/04/19 12:09:49;;;;;;;0.80;0.60;;;9.80;99.90;;;;;;5524639;26;20324;-71
2024/04/19 12:12:19;;;;;;;0.80;0.50;;;10.10;99.90;;;;;;5524758;26;20335;-70
2024/04/19 12:14:45;;;;;;;0.80;0.50;;;10.10;99.90;;;;;;5524562;26;20324;-71
2024/04/19 12:17:11;;;;;;;0.90;0.50;;;10.40;99.90;;;;;;5524576;26;20355;-71
2024/04/19 12:19:36;;;;;;;0.80;0.60;;;10.20;99.90;;;;;;5526118;26;20320;-71
2024/04/19 12:22:02;;;;;;;1.00;0.60;;;10.70;99.90;;;;;;5525909;26;20328;-74
2024/04/19 12:24:34;;;;;;;0.82;0.55;;;10.60;99.90;;;;;;5524285;26;20826;-71
2024/04/19 12:27:02;;;;;;;0.80;0.60;;;11.00;99.90;;;;;;5524477;26;20324;-72
2024/04/19 12:29:27;;;;;;;0.80;0.50;;;11.30;99.90;;;;;;5524333;26;20830;-72
2024/04/19 12:31:55;;;;;;;0.80;0.50;;;11.70;99.90;;;;;;5524153;26;20335;-72
2024/04/19 12:34:20;;;;;;;1.60;0.57;;;11.70;99.90;;;;;;5523352;26;20387;-71
2024/04/19 12:36:48;;;;;;;1.60;0.90;;;10.70;99.90;;;;;;5523314;26;20335;-71
2024/04/19 12:39:14;;;;;;;0.60;0.60;;;;;;;;;;5523229;26;20328;-70
2024/04/19 12:41:40;;;;;;;0.97;0.67;;;;;;;;;;5523347;26;20456;-70
2024/04/19 12:44:06;;;;;;;0.72;0.64;;;8.20;99.90;;;;;;5523365;26;20319;-70
2024/04/19 12:46:31;;;;;;;2.17;1.13;;;8.00;99.90;;;;;;5524272;26;20826;-70
2024/04/19 12:49:06;;;;;;;0.80;0.60;;;7.80;99.90;;;;;;5523296;26;20405;-69
2024/04/19 12:51:33;;;;;;;6.30;0.60;;;7.60;99.90;;;;;;5523557;26;20432;-71
2024/04/19 12:53:59;;;;;;;3.70;0.60;;;7.60;99.90;;;;;;5523862;26;20413;-70